VLG4GH LEBL-LEMG
Flight info
| Callsign | VLG4GH |
|---|---|
| Flight time | 1h 18m |
| Altitude | 39000 |
| Route | SENIA DCT DORMI DCT CRETA DCT NEXAS DCT DISVU DCT ADUXO DCT NUSGO DCT OBIBO DCT NASOS L27 BLN |
| Aircraft | A320/M-SDE3FGHIRWY/LB1 |
Departure
| Time | 2026-05-06 11:08 |
|---|---|
| Airport | Josep Tarradellas Barcelona-El Prat Airport (LEBL) |
Arrival
| Time | 2026-05-06 12:26 |
|---|---|
| Airport | Málaga-Costa del Sol Airport (LEMG) |
| Time | Latitude | Longitude | Altitude | Speed | Heading |
|---|---|---|---|---|---|
| 2026-05-06 10:39 | 41.29117 | 2.07846 | 19 ft | 0 kts | 155° |
| 2026-05-06 10:57 | 41.29125 | 2.07841 | 19 ft | 4 kts | 155° |
| 2026-05-06 10:58 | 41.29150 | 2.07827 | 21 ft | 4 kts | 155° |
| 2026-05-06 10:58 | 41.29175 | 2.07813 | 22 ft | 4 kts | 155° |
| 2026-05-06 10:58 | 41.29191 | 2.07806 | 21 ft | 4 kts | 80° |
| 2026-05-06 10:58 | 41.29190 | 2.07802 | 19 ft | 4 kts | 66° |
| 2026-05-06 10:59 | 41.29179 | 2.07769 | 20 ft | 4 kts | 68° |
| 2026-05-06 10:59 | 41.29173 | 2.07747 | 21 ft | 0 kts | 65° |
| 2026-05-06 11:02 | 41.29184 | 2.07781 | 19 ft | 9 kts | 65° |
| 2026-05-06 11:02 | 41.29221 | 2.07890 | 19 ft | 17 kts | 65° |
| 2026-05-06 11:02 | 41.29282 | 2.08067 | 21 ft | 25 kts | 65° |
| 2026-05-06 11:03 | 41.29347 | 2.08258 | 19 ft | 20 kts | 65° |
| 2026-05-06 11:03 | 41.29361 | 2.08391 | 20 ft | 7 kts | 145° |
| 2026-05-06 11:03 | 41.29300 | 2.08419 | 21 ft | 13 kts | 155° |
| 2026-05-06 11:03 | 41.29199 | 2.08479 | 20 ft | 17 kts | 156° |
| 2026-05-06 11:04 | 41.29149 | 2.08510 | 19 ft | 0 kts | 155° |
| 2026-05-06 11:04 | 41.29117 | 2.08529 | 17 ft | 11 kts | 155° |
| 2026-05-06 11:04 | 41.29027 | 2.08584 | 20 ft | 17 kts | 155° |
| 2026-05-06 11:05 | 41.28899 | 2.08660 | 17 ft | 22 kts | 155° |
| 2026-05-06 11:05 | 41.28887 | 2.08803 | 17 ft | 22 kts | 65° |
| 2026-05-06 11:05 | 41.28961 | 2.09017 | 17 ft | 29 kts | 66° |
| 2026-05-06 11:05 | 41.29036 | 2.09238 | 18 ft | 26 kts | 65° |
| 2026-05-06 11:06 | 41.29110 | 2.09452 | 18 ft | 27 kts | 65° |
| 2026-05-06 11:06 | 41.29182 | 2.09662 | 18 ft | 26 kts | 65° |
| 2026-05-06 11:06 | 41.29251 | 2.09863 | 19 ft | 21 kts | 65° |
| 2026-05-06 11:06 | 41.29308 | 2.09991 | 17 ft | 19 kts | 64° |
| 2026-05-06 11:07 | 41.29300 | 2.10172 | 15 ft | 22 kts | 112° |
| 2026-05-06 11:07 | 41.29239 | 2.10310 | 16 ft | 12 kts | 156° |
| 2026-05-06 11:07 | 41.29184 | 2.10219 | 19 ft | 21 kts | 245° |
| 2026-05-06 11:07 | 41.29032 | 2.09778 | 20 ft | 86 kts | 246° |
| 2026-05-06 11:08 | 41.28704 | 2.08816 | 21 ft | 139 kts | 245° |
| 2026-05-06 11:08 | 41.28252 | 2.07530 | 322 ft | 159 kts | 243° |
| 2026-05-06 11:08 | 41.27667 | 2.06287 | 1007 ft | 159 kts | 219° |
| 2026-05-06 11:08 | 41.26632 | 2.05770 | 1604 ft | 168 kts | 184° |
| 2026-05-06 11:09 | 41.25421 | 2.05766 | 2064 ft | 180 kts | 180° |
| 2026-05-06 11:09 | 41.24151 | 2.05556 | 2570 ft | 190 kts | 192° |
| 2026-05-06 11:09 | 41.22806 | 2.05210 | 3009 ft | 203 kts | 192° |
| 2026-05-06 11:09 | 41.21369 | 2.04829 | 3463 ft | 218 kts | 195° |
| 2026-05-06 11:10 | 41.19878 | 2.04350 | 4260 ft | 221 kts | 196° |
| 2026-05-06 11:10 | 41.18415 | 2.03762 | 5158 ft | 219 kts | 211° |
| 2026-05-06 11:10 | 41.17381 | 2.02338 | 6006 ft | 216 kts | 241° |
| 2026-05-06 11:10 | 41.16624 | 2.00611 | 6883 ft | 221 kts | 239° |
| 2026-05-06 11:11 | 41.15948 | 1.98671 | 7318 ft | 244 kts | 251° |
| 2026-05-06 11:11 | 41.15407 | 1.96438 | 7862 ft | 260 kts | 254° |
| 2026-05-06 11:11 | 41.14898 | 1.94103 | 8672 ft | 266 kts | 255° |
| 2026-05-06 11:11 | 41.14391 | 1.91719 | 9532 ft | 270 kts | 255° |
| 2026-05-06 11:12 | 41.13867 | 1.89296 | 10224 ft | 281 kts | 255° |
| 2026-05-06 11:12 | 41.13297 | 1.86710 | 10479 ft | 304 kts | 255° |
| 2026-05-06 11:12 | 41.12679 | 1.83950 | 10911 ft | 318 kts | 254° |
| 2026-05-06 11:12 | 41.12035 | 1.81122 | 11604 ft | 323 kts | 254° |
| 2026-05-06 11:13 | 41.11380 | 1.78260 | 12321 ft | 326 kts | 254° |
| 2026-05-06 11:13 | 41.10716 | 1.75367 | 13049 ft | 330 kts | 253° |
| 2026-05-06 11:13 | 41.10042 | 1.72445 | 13796 ft | 333 kts | 253° |
| 2026-05-06 11:13 | 41.09373 | 1.69543 | 14453 ft | 335 kts | 253° |
| 2026-05-06 11:14 | 41.08690 | 1.66595 | 15163 ft | 335 kts | 253° |
| 2026-05-06 11:14 | 41.08006 | 1.63639 | 15876 ft | 335 kts | 253° |
| 2026-05-06 11:14 | 41.07324 | 1.60682 | 16584 ft | 336 kts | 252° |
| 2026-05-06 11:14 | 41.06643 | 1.57727 | 17300 ft | 336 kts | 252° |
| 2026-05-06 11:15 | 41.05958 | 1.54764 | 18008 ft | 336 kts | 252° |
| 2026-05-06 11:15 | 41.05270 | 1.51797 | 18650 ft | 338 kts | 252° |
| 2026-05-06 11:15 | 41.04577 | 1.48810 | 19212 ft | 340 kts | 252° |
| 2026-05-06 11:15 | 41.03879 | 1.45804 | 19802 ft | 342 kts | 252° |
| 2026-05-06 11:16 | 41.03176 | 1.42781 | 20393 ft | 344 kts | 252° |
| 2026-05-06 11:16 | 41.02470 | 1.39745 | 20955 ft | 346 kts | 252° |
| 2026-05-06 11:16 | 41.01758 | 1.36694 | 21499 ft | 348 kts | 252° |
| 2026-05-06 11:16 | 41.01040 | 1.33629 | 22038 ft | 350 kts | 252° |
| 2026-05-06 11:17 | 41.00319 | 1.30546 | 22574 ft | 352 kts | 252° |
| 2026-05-06 11:17 | 40.99591 | 1.27446 | 23104 ft | 354 kts | 251° |
| 2026-05-06 11:17 | 40.98857 | 1.24332 | 23616 ft | 356 kts | 251° |
| 2026-05-06 11:17 | 40.98116 | 1.21197 | 24058 ft | 358 kts | 251° |
| 2026-05-06 11:18 | 40.97374 | 1.18050 | 24485 ft | 359 kts | 251° |
| 2026-05-06 11:18 | 40.96638 | 1.14929 | 24907 ft | 361 kts | 251° |
| 2026-05-06 11:18 | 40.95888 | 1.11747 | 25340 ft | 363 kts | 252° |
| 2026-05-06 11:18 | 40.95137 | 1.08550 | 25759 ft | 365 kts | 252° |
| 2026-05-06 11:19 | 40.94381 | 1.05339 | 26169 ft | 367 kts | 252° |
| 2026-05-06 11:19 | 40.93615 | 1.02109 | 26575 ft | 369 kts | 251° |
| 2026-05-06 11:19 | 40.92842 | 0.98866 | 26966 ft | 371 kts | 251° |
| 2026-05-06 11:19 | 40.92062 | 0.95598 | 27364 ft | 373 kts | 251° |
| 2026-05-06 11:20 | 40.91282 | 0.92320 | 27757 ft | 375 kts | 251° |
| 2026-05-06 11:20 | 40.90497 | 0.89019 | 28118 ft | 378 kts | 251° |
| 2026-05-06 11:20 | 40.89706 | 0.85702 | 28487 ft | 380 kts | 251° |
| 2026-05-06 11:20 | 40.88906 | 0.82362 | 28878 ft | 382 kts | 251° |
| 2026-05-06 11:21 | 40.88102 | 0.79009 | 29276 ft | 384 kts | 251° |
| 2026-05-06 11:21 | 40.87569 | 0.76775 | 29534 ft | 385 kts | 252° |
| 2026-05-06 11:21 | 40.86997 | 0.73302 | 29885 ft | 390 kts | 261° |
| 2026-05-06 11:21 | 40.86907 | 0.69701 | 30213 ft | 395 kts | 268° |
| 2026-05-06 11:22 | 40.86943 | 0.66067 | 30528 ft | 396 kts | 268° |
| 2026-05-06 11:22 | 40.86973 | 0.62422 | 30917 ft | 396 kts | 268° |
| 2026-05-06 11:22 | 40.86998 | 0.58790 | 31403 ft | 395 kts | 267° |
| 2026-05-06 11:22 | 40.87019 | 0.55168 | 31868 ft | 393 kts | 267° |
| 2026-05-06 11:23 | 40.87039 | 0.51565 | 32344 ft | 392 kts | 267° |
| 2026-05-06 11:23 | 40.87057 | 0.47976 | 32810 ft | 390 kts | 267° |
| 2026-05-06 11:23 | 40.87075 | 0.44396 | 33285 ft | 389 kts | 267° |
| 2026-05-06 11:23 | 40.87094 | 0.40828 | 33760 ft | 388 kts | 267° |
| 2026-05-06 11:24 | 40.87114 | 0.37269 | 34193 ft | 387 kts | 267° |
| 2026-05-06 11:24 | 40.87134 | 0.33703 | 34455 ft | 389 kts | 267° |
| 2026-05-06 11:24 | 40.87152 | 0.30125 | 34778 ft | 390 kts | 267° |
| 2026-05-06 11:24 | 40.87144 | 0.26544 | 35057 ft | 390 kts | 263° |
| 2026-05-06 11:25 | 40.86608 | 0.23062 | 35317 ft | 388 kts | 248° |
| 2026-05-06 11:25 | 40.85482 | 0.19822 | 35572 ft | 389 kts | 244° |
| 2026-05-06 11:25 | 40.84287 | 0.16615 | 35871 ft | 389 kts | 244° |
| 2026-05-06 11:25 | 40.83079 | 0.13417 | 36141 ft | 390 kts | 244° |
| 2026-05-06 11:26 | 40.81864 | 0.10217 | 36410 ft | 390 kts | 244° |
| 2026-05-06 11:26 | 40.80647 | 0.07012 | 36693 ft | 391 kts | 244° |
| 2026-05-06 11:26 | 40.79430 | 0.03805 | 36989 ft | 391 kts | 244° |
| 2026-05-06 11:26 | 40.78215 | 0.00599 | 37263 ft | 391 kts | 244° |
| 2026-05-06 11:27 | 40.77014 | -0.02572 | 37502 ft | 392 kts | 244° |
| 2026-05-06 11:27 | 40.75794 | -0.05793 | 37720 ft | 393 kts | 244° |
| 2026-05-06 11:27 | 40.74569 | -0.09025 | 37966 ft | 394 kts | 244° |
| 2026-05-06 11:27 | 40.73343 | -0.12259 | 38218 ft | 394 kts | 244° |
| 2026-05-06 11:28 | 40.72114 | -0.15491 | 38488 ft | 395 kts | 244° |
| 2026-05-06 11:28 | 40.70883 | -0.18726 | 38712 ft | 395 kts | 244° |
| 2026-05-06 11:28 | 40.69649 | -0.21966 | 38902 ft | 396 kts | 244° |
| 2026-05-06 11:29 | 40.67170 | -0.28468 | 38987 ft | 399 kts | 244° |
| 2026-05-06 11:29 | 40.64672 | -0.34999 | 38979 ft | 399 kts | 244° |
| 2026-05-06 11:30 | 40.62173 | -0.41527 | 38980 ft | 399 kts | 244° |
| 2026-05-06 11:30 | 40.59672 | -0.48052 | 38984 ft | 399 kts | 243° |
| 2026-05-06 11:31 | 40.57160 | -0.54572 | 38983 ft | 400 kts | 243° |
| 2026-05-06 11:31 | 40.54647 | -0.61096 | 38978 ft | 400 kts | 243° |
| 2026-05-06 11:32 | 40.52126 | -0.67610 | 38981 ft | 400 kts | 243° |
| 2026-05-06 11:32 | 40.49597 | -0.74118 | 38982 ft | 400 kts | 243° |
| 2026-05-06 11:33 | 40.47067 | -0.80632 | 38968 ft | 400 kts | 243° |
| 2026-05-06 11:33 | 40.44536 | -0.87150 | 38971 ft | 401 kts | 243° |
| 2026-05-06 11:34 | 40.42001 | -0.93659 | 38983 ft | 401 kts | 243° |
| 2026-05-06 11:34 | 40.39460 | -1.00166 | 39022 ft | 401 kts | 243° |
| 2026-05-06 11:35 | 40.36914 | -1.06665 | 39030 ft | 401 kts | 243° |
| 2026-05-06 11:35 | 40.34378 | -1.13118 | 39037 ft | 401 kts | 243° |
| 2026-05-06 11:36 | 40.31813 | -1.19641 | 39044 ft | 401 kts | 243° |
| 2026-05-06 11:36 | 40.29252 | -1.26137 | 39033 ft | 401 kts | 243° |
| 2026-05-06 11:37 | 40.26684 | -1.32632 | 39025 ft | 402 kts | 243° |
| 2026-05-06 11:37 | 40.24130 | -1.39085 | 38981 ft | 402 kts | 243° |
| 2026-05-06 11:38 | 40.21554 | -1.45565 | 38994 ft | 401 kts | 243° |
| 2026-05-06 11:38 | 40.18981 | -1.52027 | 38989 ft | 400 kts | 243° |
| 2026-05-06 11:39 | 40.16413 | -1.58483 | 38992 ft | 400 kts | 243° |
| 2026-05-06 11:39 | 40.13833 | -1.64945 | 38989 ft | 401 kts | 243° |
| 2026-05-06 11:40 | 40.11252 | -1.71400 | 38987 ft | 401 kts | 243° |
| 2026-05-06 11:40 | 40.08670 | -1.77856 | 38989 ft | 401 kts | 243° |
| 2026-05-06 11:41 | 40.06072 | -1.84302 | 38994 ft | 401 kts | 243° |
| 2026-05-06 11:41 | 40.04773 | -1.87522 | 38279 ft | 401 kts | 242° |
| 2026-05-06 11:41 | 40.03474 | -1.90749 | 39006 ft | 403 kts | 243° |
| 2026-05-06 11:42 | 40.00877 | -1.97210 | 38972 ft | 401 kts | 243° |
| 2026-05-06 11:42 | 39.98271 | -2.03637 | 38983 ft | 401 kts | 243° |
| 2026-05-06 11:43 | 39.95680 | -2.10010 | 38981 ft | 401 kts | 243° |
| 2026-05-06 11:43 | 39.93073 | -2.16429 | 38982 ft | 401 kts | 243° |
| 2026-05-06 11:44 | 39.89161 | -2.26053 | 38985 ft | 401 kts | 243° |
| 2026-05-06 11:44 | 39.86541 | -2.32465 | 38988 ft | 401 kts | 243° |
| 2026-05-06 11:45 | 39.83913 | -2.38878 | 38987 ft | 402 kts | 243° |
| 2026-05-06 11:45 | 39.81286 | -2.45292 | 38987 ft | 402 kts | 243° |
| 2026-05-06 11:46 | 39.78654 | -2.51704 | 38987 ft | 402 kts | 243° |
| 2026-05-06 11:46 | 39.76012 | -2.58111 | 38974 ft | 402 kts | 243° |
| 2026-05-06 11:47 | 39.73371 | -2.64505 | 38982 ft | 401 kts | 243° |
| 2026-05-06 11:47 | 39.70727 | -2.70887 | 38991 ft | 401 kts | 243° |
| 2026-05-06 11:48 | 39.67983 | -2.77203 | 38987 ft | 402 kts | 236° |
| 2026-05-06 11:48 | 39.63970 | -2.82277 | 38982 ft | 408 kts | 217° |
| 2026-05-06 11:49 | 39.59215 | -2.86332 | 38975 ft | 409 kts | 217° |
| 2026-05-06 11:49 | 39.54458 | -2.90389 | 38979 ft | 410 kts | 217° |
| 2026-05-06 11:50 | 39.49699 | -2.94442 | 38966 ft | 409 kts | 217° |
| 2026-05-06 11:50 | 39.44972 | -2.98463 | 38972 ft | 409 kts | 217° |
| 2026-05-06 11:51 | 39.40181 | -3.02437 | 38976 ft | 411 kts | 212° |
| 2026-05-06 11:51 | 39.34846 | -3.05253 | 38969 ft | 415 kts | 205° |
| 2026-05-06 11:52 | 39.29433 | -3.07884 | 38948 ft | 416 kts | 205° |
| 2026-05-06 11:52 | 39.24025 | -3.10506 | 38957 ft | 415 kts | 205° |
| 2026-05-06 11:53 | 39.18617 | -3.13128 | 38963 ft | 415 kts | 205° |
| 2026-05-06 11:53 | 39.13215 | -3.15749 | 38965 ft | 415 kts | 205° |
| 2026-05-06 11:54 | 39.07815 | -3.18366 | 38948 ft | 415 kts | 205° |
| 2026-05-06 11:54 | 39.02420 | -3.20970 | 38955 ft | 414 kts | 205° |
| 2026-05-06 11:55 | 38.97030 | -3.23570 | 38949 ft | 414 kts | 205° |
| 2026-05-06 11:55 | 38.91643 | -3.26163 | 38955 ft | 413 kts | 205° |
| 2026-05-06 11:56 | 38.86272 | -3.28745 | 38954 ft | 413 kts | 205° |
| 2026-05-06 11:56 | 38.80874 | -3.31331 | 38939 ft | 413 kts | 205° |
| 2026-05-06 11:57 | 38.75498 | -3.33900 | 38941 ft | 412 kts | 205° |
| 2026-05-06 11:57 | 38.70126 | -3.36463 | 38938 ft | 412 kts | 205° |
| 2026-05-06 11:58 | 38.64758 | -3.39026 | 38942 ft | 412 kts | 205° |
| 2026-05-06 11:58 | 38.59391 | -3.41585 | 38923 ft | 412 kts | 205° |
| 2026-05-06 11:59 | 38.54059 | -3.44121 | 38933 ft | 412 kts | 205° |
| 2026-05-06 11:59 | 38.48659 | -3.46686 | 38933 ft | 411 kts | 205° |
| 2026-05-06 12:00 | 38.43290 | -3.49232 | 38938 ft | 412 kts | 205° |
| 2026-05-06 12:00 | 38.37964 | -3.51757 | 38933 ft | 411 kts | 205° |
| 2026-05-06 12:01 | 38.35280 | -3.53028 | 38798 ft | 413 kts | 205° |
| 2026-05-06 12:01 | 38.32593 | -3.54299 | 38437 ft | 411 kts | 205° |
| 2026-05-06 12:01 | 38.29913 | -3.55564 | 38015 ft | 410 kts | 205° |
| 2026-05-06 12:01 | 38.27243 | -3.56822 | 37603 ft | 409 kts | 205° |
| 2026-05-06 12:02 | 38.24577 | -3.58076 | 37193 ft | 408 kts | 205° |
| 2026-05-06 12:02 | 38.21923 | -3.59325 | 36793 ft | 407 kts | 205° |
| 2026-05-06 12:02 | 38.19400 | -3.60854 | 36403 ft | 397 kts | 218° |
| 2026-05-06 12:02 | 38.17310 | -3.63096 | 36016 ft | 392 kts | 226° |
| 2026-05-06 12:03 | 38.15344 | -3.65493 | 35638 ft | 392 kts | 226° |
| 2026-05-06 12:03 | 38.13381 | -3.67892 | 35145 ft | 392 kts | 227° |
| 2026-05-06 12:03 | 38.11414 | -3.70302 | 34531 ft | 393 kts | 227° |
| 2026-05-06 12:03 | 38.09447 | -3.72715 | 33961 ft | 394 kts | 227° |
| 2026-05-06 12:04 | 38.07476 | -3.75128 | 33309 ft | 394 kts | 226° |
| 2026-05-06 12:04 | 38.05502 | -3.77540 | 32654 ft | 394 kts | 226° |
| 2026-05-06 12:04 | 38.03528 | -3.79946 | 32032 ft | 393 kts | 226° |
| 2026-05-06 12:04 | 38.01554 | -3.82347 | 31422 ft | 393 kts | 226° |
| 2026-05-06 12:05 | 37.99580 | -3.84744 | 30825 ft | 392 kts | 226° |
| 2026-05-06 12:05 | 37.97612 | -3.87131 | 30236 ft | 392 kts | 226° |
| 2026-05-06 12:05 | 37.95644 | -3.89520 | 29598 ft | 391 kts | 226° |
| 2026-05-06 12:05 | 37.93686 | -3.91901 | 28923 ft | 390 kts | 226° |
| 2026-05-06 12:06 | 37.91733 | -3.94282 | 28260 ft | 388 kts | 226° |
| 2026-05-06 12:06 | 37.89789 | -3.96645 | 27617 ft | 387 kts | 226° |
| 2026-05-06 12:06 | 37.87850 | -3.98996 | 26968 ft | 386 kts | 226° |
| 2026-05-06 12:06 | 37.85914 | -4.01340 | 26349 ft | 385 kts | 226° |
| 2026-05-06 12:07 | 37.83984 | -4.03675 | 25750 ft | 383 kts | 226° |
| 2026-05-06 12:07 | 37.82054 | -4.06004 | 25161 ft | 383 kts | 226° |
| 2026-05-06 12:07 | 37.80131 | -4.08323 | 24587 ft | 382 kts | 226° |
| 2026-05-06 12:07 | 37.78213 | -4.10639 | 24022 ft | 381 kts | 226° |
| 2026-05-06 12:08 | 37.76294 | -4.12958 | 23459 ft | 381 kts | 226° |
| 2026-05-06 12:08 | 37.74381 | -4.15270 | 22803 ft | 381 kts | 226° |
| 2026-05-06 12:08 | 37.72488 | -4.17550 | 22159 ft | 381 kts | 226° |
| 2026-05-06 12:08 | 37.70548 | -4.19884 | 21527 ft | 380 kts | 226° |
| 2026-05-06 12:09 | 37.68660 | -4.22153 | 20915 ft | 380 kts | 226° |
| 2026-05-06 12:09 | 37.66758 | -4.24439 | 20473 ft | 376 kts | 225° |
| 2026-05-06 12:09 | 37.64831 | -4.26759 | 20047 ft | 394 kts | 225° |
| 2026-05-06 12:09 | 37.62827 | -4.29172 | 19620 ft | 401 kts | 225° |
| 2026-05-06 12:10 | 37.60803 | -4.31606 | 19213 ft | 402 kts | 225° |
| 2026-05-06 12:10 | 37.58782 | -4.34028 | 18805 ft | 401 kts | 225° |
| 2026-05-06 12:10 | 37.56763 | -4.36442 | 18398 ft | 399 kts | 225° |
| 2026-05-06 12:10 | 37.54755 | -4.38840 | 17970 ft | 397 kts | 225° |
| 2026-05-06 12:11 | 37.52756 | -4.41228 | 17510 ft | 395 kts | 225° |
| 2026-05-06 12:11 | 37.50765 | -4.43604 | 17071 ft | 393 kts | 225° |
| 2026-05-06 12:11 | 37.48784 | -4.45968 | 16628 ft | 392 kts | 225° |
| 2026-05-06 12:11 | 37.46810 | -4.48324 | 16193 ft | 390 kts | 225° |
| 2026-05-06 12:12 | 37.44846 | -4.50667 | 15763 ft | 388 kts | 225° |
| 2026-05-06 12:12 | 37.43548 | -4.52215 | 15482 ft | 387 kts | 225° |
| 2026-05-06 12:12 | 37.41595 | -4.54542 | 15061 ft | 386 kts | 225° |
| 2026-05-06 12:12 | 37.39649 | -4.56859 | 14647 ft | 385 kts | 224° |
| 2026-05-06 12:13 | 37.37706 | -4.59170 | 14236 ft | 384 kts | 224° |
| 2026-05-06 12:13 | 37.35765 | -4.61476 | 13827 ft | 384 kts | 224° |
| 2026-05-06 12:13 | 37.33829 | -4.63772 | 13396 ft | 382 kts | 224° |
| 2026-05-06 12:13 | 37.31901 | -4.66058 | 12950 ft | 380 kts | 224° |
| 2026-05-06 12:14 | 37.29987 | -4.68326 | 12500 ft | 377 kts | 224° |
| 2026-05-06 12:14 | 37.28085 | -4.70579 | 12069 ft | 375 kts | 224° |
| 2026-05-06 12:14 | 37.26194 | -4.72815 | 11647 ft | 372 kts | 224° |
| 2026-05-06 12:14 | 37.24314 | -4.75035 | 11225 ft | 369 kts | 224° |
| 2026-05-06 12:15 | 37.22456 | -4.77229 | 10803 ft | 362 kts | 224° |
| 2026-05-06 12:15 | 37.20589 | -4.79194 | 10388 ft | 340 kts | 211° |
| 2026-05-06 12:15 | 37.18433 | -4.80140 | 9982 ft | 323 kts | 187° |
| 2026-05-06 12:15 | 37.16235 | -4.80220 | 9555 ft | 309 kts | 181° |
| 2026-05-06 12:16 | 37.14133 | -4.80208 | 9102 ft | 296 kts | 181° |
| 2026-05-06 12:16 | 37.12116 | -4.80178 | 8664 ft | 284 kts | 180° |
| 2026-05-06 12:16 | 37.10187 | -4.80144 | 8360 ft | 271 kts | 179° |
| 2026-05-06 12:16 | 37.08344 | -4.80114 | 8077 ft | 259 kts | 180° |
| 2026-05-06 12:17 | 37.06574 | -4.80090 | 7810 ft | 251 kts | 180° |
| 2026-05-06 12:17 | 37.04835 | -4.80070 | 7541 ft | 249 kts | 179° |
| 2026-05-06 12:17 | 37.03114 | -4.80050 | 7267 ft | 246 kts | 179° |
| 2026-05-06 12:17 | 37.01416 | -4.80030 | 6999 ft | 243 kts | 179° |
| 2026-05-06 12:18 | 36.99749 | -4.80011 | 6716 ft | 235 kts | 179° |
| 2026-05-06 12:18 | 36.98146 | -4.79994 | 6427 ft | 227 kts | 178° |
| 2026-05-06 12:18 | 36.96598 | -4.79978 | 6101 ft | 225 kts | 179° |
| 2026-05-06 12:18 | 36.95033 | -4.79961 | 5777 ft | 225 kts | 179° |
| 2026-05-06 12:19 | 36.93465 | -4.79905 | 5445 ft | 226 kts | 172° |
| 2026-05-06 12:19 | 36.91946 | -4.79401 | 5121 ft | 227 kts | 160° |
| 2026-05-06 12:19 | 36.90455 | -4.78749 | 5022 ft | 229 kts | 161° |
| 2026-05-06 12:19 | 36.88956 | -4.78096 | 5002 ft | 224 kts | 161° |
| 2026-05-06 12:20 | 36.87549 | -4.77429 | 4997 ft | 209 kts | 152° |
| 2026-05-06 12:20 | 36.86416 | -4.76384 | 5021 ft | 201 kts | 136° |
| 2026-05-06 12:20 | 36.85449 | -4.75136 | 5008 ft | 200 kts | 132° |
| 2026-05-06 12:20 | 36.84520 | -4.73845 | 4938 ft | 201 kts | 131° |
| 2026-05-06 12:21 | 36.83599 | -4.72549 | 4724 ft | 198 kts | 131° |
| 2026-05-06 12:21 | 36.82686 | -4.71262 | 4457 ft | 198 kts | 131° |
| 2026-05-06 12:21 | 36.81774 | -4.69977 | 4173 ft | 198 kts | 131° |
| 2026-05-06 12:21 | 36.80863 | -4.68693 | 3905 ft | 197 kts | 131° |
| 2026-05-06 12:22 | 36.79969 | -4.67435 | 3638 ft | 189 kts | 131° |
| 2026-05-06 12:22 | 36.79119 | -4.66237 | 3386 ft | 178 kts | 131° |
| 2026-05-06 12:22 | 36.78304 | -4.65091 | 3128 ft | 175 kts | 131° |
| 2026-05-06 12:22 | 36.77503 | -4.63964 | 2883 ft | 173 kts | 131° |
| 2026-05-06 12:23 | 36.76708 | -4.62846 | 2639 ft | 171 kts | 131° |
| 2026-05-06 12:23 | 36.75915 | -4.61732 | 2400 ft | 171 kts | 131° |
| 2026-05-06 12:23 | 36.75126 | -4.60623 | 2153 ft | 170 kts | 131° |
| 2026-05-06 12:23 | 36.74379 | -4.59574 | 1927 ft | 156 kts | 131° |
| 2026-05-06 12:24 | 36.73668 | -4.58575 | 1714 ft | 152 kts | 131° |
| 2026-05-06 12:24 | 36.72983 | -4.57614 | 1514 ft | 149 kts | 131° |
| 2026-05-06 12:24 | 36.72300 | -4.56663 | 1274 ft | 145 kts | 133° |
| 2026-05-06 12:24 | 36.71653 | -4.55708 | 1057 ft | 144 kts | 133° |
| 2026-05-06 12:25 | 36.70969 | -4.54812 | 880 ft | 142 kts | 134° |
| 2026-05-06 12:25 | 36.70346 | -4.53888 | 688 ft | 138 kts | 133° |
| 2026-05-06 12:25 | 36.69702 | -4.53019 | 487 ft | 136 kts | 132° |
| 2026-05-06 12:25 | 36.69075 | -4.52126 | 295 ft | 137 kts | 134° |
| 2026-05-06 12:26 | 36.68442 | -4.51242 | 105 ft | 136 kts | 133° |
| 2026-05-06 12:26 | 36.67860 | -4.50428 | 52 ft | 104 kts | 131° |
| 2026-05-06 12:26 | 36.67495 | -4.49917 | 51 ft | 54 kts | 131° |
| 2026-05-06 12:26 | 36.67329 | -4.49659 | 46 ft | 26 kts | 114° |
| 2026-05-06 12:27 | 36.67289 | -4.49484 | 44 ft | 11 kts | 104° |
| 2026-05-06 12:27 | 36.67273 | -4.49381 | 41 ft | 12 kts | 101° |
| 2026-05-06 12:27 | 36.67268 | -4.49287 | 42 ft | 11 kts | 70° |
| 2026-05-06 12:27 | 36.67343 | -4.49235 | 40 ft | 14 kts | 20° |
| 2026-05-06 12:28 | 36.67412 | -4.49164 | 42 ft | 9 kts | 41° |
| 2026-05-06 12:28 | 36.67454 | -4.49153 | 42 ft | 6 kts | 334° |
| 2026-05-06 12:28 | 36.67478 | -4.49168 | 42 ft | 4 kts | 332° |
| 2026-05-06 12:28 | 36.67490 | -4.49176 | 42 ft | 0 kts | 332° |